createdAt,value
2022-10-19T00:01:12.280Z,101884.38
2022-10-19T00:03:39.284Z,101882.75
2022-10-19T00:06:18.550Z,101876.53
2022-10-19T00:08:45.009Z,101884.38
2022-10-19T00:11:12.776Z,101884.38
2022-10-19T00:13:39.549Z,101880.25
2022-10-19T00:16:14.293Z,101878.28
2022-10-19T00:18:43.370Z,101875.81
2022-10-19T00:21:13.297Z,101872.19
2022-10-19T00:23:40.161Z,101878.91
2022-10-19T00:26:06.966Z,101867.75
2022-10-19T00:28:34.216Z,101870.88
2022-10-19T00:31:13.105Z,101872.84
2022-10-19T00:33:40.388Z,101879.25
2022-10-19T00:36:14.606Z,101878.41
2022-10-19T00:38:42.116Z,101879.88
2022-10-19T00:41:08.869Z,101884.84
2022-10-19T00:43:54.072Z,101883.81
2022-10-19T00:46:20.649Z,101887.09
2022-10-19T00:51:19.147Z,101872.97
2022-10-19T00:53:45.807Z,101874.09
2022-10-19T00:56:15.543Z,101872.44
2022-10-19T00:58:43.837Z,101870.81
2022-10-19T01:01:16.677Z,101869.47
2022-10-19T01:03:44.488Z,101867.69
2022-10-19T01:06:13.792Z,101864.69
2022-10-19T01:08:40.345Z,101872.06
2022-10-19T01:11:43.660Z,101859.09
2022-10-19T01:14:31.565Z,101854.69
2022-10-19T01:17:22.177Z,101853.34
2022-10-19T01:20:20.572Z,101850.88
2022-10-19T01:23:10.256Z,101853.66
2022-10-19T01:25:40.177Z,101845.81
2022-10-19T01:28:48.307Z,101838.88
2022-10-19T01:31:44.632Z,101835.91
2022-10-19T01:34:31.527Z,101838.69
2022-10-19T01:37:19.340Z,101834.88
2022-10-19T01:40:07.906Z,101836.22
2022-10-19T01:45:35.206Z,101837.03
2022-10-19T01:48:08.555Z,101826.50
2022-10-19T01:50:49.375Z,101825.38
2022-10-19T01:53:19.389Z,101819.78
2022-10-19T01:55:50.388Z,101816.47
2022-10-19T01:58:22.432Z,101819.41
2022-10-19T02:00:52.670Z,101814.66
2022-10-19T02:03:20.400Z,101812.69
2022-10-19T02:05:49.357Z,101813.19
2022-10-19T02:08:22.846Z,101808.63
2022-10-19T02:10:49.986Z,101811.22
2022-10-19T02:13:16.927Z,101811.53
2022-10-19T02:15:48.101Z,101813.63
2022-10-19T02:18:19.762Z,101807.72
2022-10-19T02:20:47.062Z,101802.66
2022-10-19T02:23:17.274Z,101797.91
2022-10-19T02:25:43.970Z,101800.00
2022-10-19T02:28:11.677Z,101790.50
2022-10-19T02:30:38.273Z,101793.28
2022-10-19T02:33:05.038Z,101792.75
2022-10-19T02:35:31.701Z,101797.00
2022-10-19T02:38:02.267Z,101798.31
2022-10-19T02:40:34.541Z,101791.63
2022-10-19T02:43:05.614Z,101788.19
2022-10-19T02:45:37.199Z,101788.19
2022-10-19T02:48:34.471Z,101798.31
2022-10-19T02:51:01.101Z,101797.84
2022-10-19T02:53:28.656Z,101799.59
2022-10-19T02:55:55.356Z,101798.47
2022-10-19T02:58:22.061Z,101792.06
2022-10-19T03:00:48.876Z,101787.16
2022-10-19T03:03:15.708Z,101788.97
2022-10-19T03:05:42.438Z,101789.25
2022-10-19T03:08:09.229Z,101785.53
2022-10-19T03:10:35.996Z,101796.00
2022-10-19T03:13:02.739Z,101777.09
2022-10-19T03:15:29.961Z,101786.59
2022-10-19T03:18:05.745Z,101776.28
2022-10-19T03:20:32.372Z,101779.97
2022-10-19T03:22:59.053Z,101774.81
2022-10-19T03:25:25.695Z,101772.31
2022-10-19T03:27:53.023Z,101769.03
2022-10-19T03:30:19.504Z,101759.53
2022-10-19T03:32:46.118Z,101766.25
2022-10-19T03:35:12.751Z,101755.41
2022-10-19T03:37:39.260Z,101758.50
2022-10-19T03:40:06.175Z,101751.28
2022-10-19T03:42:32.664Z,101752.28
2022-10-19T03:44:59.234Z,101752.91
2022-10-19T03:47:25.974Z,101755.22
2022-10-19T03:49:52.654Z,101759.13
2022-10-19T03:52:19.700Z,101749.44
2022-10-19T03:54:49.760Z,101750.75
2022-10-19T03:57:16.534Z,101744.47
2022-10-19T03:59:43.088Z,101747.78
2022-10-19T04:02:09.677Z,101735.81
2022-10-19T04:04:36.351Z,101736.31
2022-10-19T04:07:02.995Z,101733.03
2022-10-19T04:09:29.804Z,101744.69
2022-10-19T04:11:56.705Z,101735.81
2022-10-19T04:14:32.611Z,101745.31
2022-10-19T04:17:03.232Z,101742.19
2022-10-19T04:19:29.909Z,101744.47
2022-10-19T04:21:56.966Z,101747.59
2022-10-19T04:24:23.678Z,101745.94
2022-10-19T04:26:53.051Z,101751.03
2022-10-19T04:29:21.953Z,101754.66
2022-10-19T04:31:51.602Z,101748.25
2022-10-19T04:34:19.129Z,101749.06
2022-10-19T04:36:46.121Z,101753.81
2022-10-19T04:39:12.874Z,101743.78
2022-10-19T04:41:39.433Z,101750.50
2022-10-19T04:44:09.332Z,101754.13
2022-10-19T04:46:35.929Z,101750.00
2022-10-19T04:49:04.308Z,101743.28
2022-10-19T04:51:31.123Z,101742.72
2022-10-19T04:53:59.655Z,101736.34
2022-10-19T04:56:27.702Z,101746.56
2022-10-19T04:58:57.455Z,101748.03
2022-10-19T05:01:25.724Z,101741.41
2022-10-19T05:06:31.210Z,101732.22
2022-10-19T05:08:57.983Z,101733.34
2022-10-19T05:11:25.572Z,101729.44
2022-10-19T05:13:52.103Z,101730.06
2022-10-19T05:16:21.110Z,101732.84
2022-10-19T05:18:52.415Z,101729.53
2022-10-19T05:21:37.781Z,101721.16
2022-10-19T05:24:04.356Z,101722.84
2022-10-19T05:26:31.202Z,101734.00
2022-10-19T05:29:02.666Z,101718.38
2022-10-19T05:31:31.779Z,101726.25
2022-10-19T05:33:59.082Z,101722.84
2022-10-19T05:36:34.391Z,101722.00
2022-10-19T05:39:04.182Z,101721.16
2022-10-19T05:41:30.823Z,101721.81
2022-10-19T05:43:59.679Z,101718.00
2022-10-19T05:46:27.904Z,101722.97
2022-10-19T05:48:56.266Z,101719.16
2022-10-19T05:51:24.557Z,101715.84
2022-10-19T05:53:52.696Z,101715.84
2022-10-19T05:56:22.679Z,101707.78
2022-10-19T05:58:49.973Z,101705.81
2022-10-19T06:01:21.301Z,101709.44
2022-10-19T06:03:51.724Z,101699.75
2022-10-19T06:06:18.304Z,101702.84
2022-10-19T06:08:45.328Z,101692.84
2022-10-19T06:11:16.032Z,101689.22
2022-10-19T06:13:45.089Z,101697.88
2022-10-19T06:16:13.871Z,101697.09
2022-10-19T06:18:42.903Z,101708.25
2022-10-19T06:21:15.923Z,101704.31
2022-10-19T06:26:14.826Z,101708.88
2022-10-19T06:28:43.388Z,101709.69
2022-10-19T06:31:10.997Z,101714.44
2022-10-19T06:33:40.595Z,101718.06
2022-10-19T06:36:12.006Z,101715.91
2022-10-19T06:38:38.860Z,101723.94
2022-10-19T06:41:06.228Z,101721.97
2022-10-19T06:43:33.536Z,101722.91
2022-10-19T06:46:10.085Z,101729.09
2022-10-19T06:48:36.669Z,101725.69
2022-10-19T06:51:06.685Z,101729.09
2022-10-19T06:53:34.656Z,101720.75
2022-10-19T06:56:03.160Z,101712.38
2022-10-19T06:58:31.083Z,101709.03
2022-10-19T07:01:00.211Z,101706.94
2022-10-19T07:03:28.672Z,101708.66
2022-10-19T07:05:57.084Z,101708.72
2022-10-19T07:08:25.079Z,101702.69
2022-10-19T07:10:53.405Z,101717.69
2022-10-19T07:13:20.363Z,101712.22
2022-10-19T07:15:47.347Z,101715.31
2022-10-19T07:18:14.566Z,101713.50
2022-10-19T07:20:41.764Z,101711.63
2022-10-19T07:23:08.378Z,101721.34
2022-10-19T07:25:36.645Z,101713.50
2022-10-19T07:28:03.207Z,101714.44
2022-10-19T07:30:29.778Z,101718.38
2022-10-19T07:32:56.444Z,101717.56
2022-10-19T07:35:41.748Z,101718.53
2022-10-19T07:38:08.821Z,101711.63
2022-10-19T07:40:36.160Z,101715.06
2022-10-19T07:43:03.105Z,101707.72
2022-10-19T07:45:30.055Z,101705.34
2022-10-19T07:47:56.713Z,101701.81
2022-10-19T07:50:24.718Z,101704.66
2022-10-19T07:52:55.054Z,101694.28
2022-10-19T07:55:22.064Z,101686.41
2022-10-19T07:57:49.888Z,101682.78
2022-10-19T08:00:17.236Z,101682.28
2022-10-19T08:03:11.770Z,101680.25
2022-10-19T08:05:34.583Z,101686.66
2022-10-19T08:08:01.207Z,101685.19
2022-10-19T08:10:27.919Z,101671.22
2022-10-19T08:12:54.628Z,101677.97
2022-10-19T08:15:21.300Z,101671.44
2022-10-19T08:17:47.901Z,101672.41
2022-10-19T08:20:14.449Z,101677.97
2022-10-19T08:22:41.859Z,101687.97
2022-10-19T08:25:08.591Z,101689.13
2022-10-19T08:30:03.439Z,101687.69
2022-10-19T08:32:30.084Z,101681.94
2022-10-19T08:34:56.724Z,101682.28
2022-10-19T08:37:40.157Z,101671.22
2022-10-19T08:40:21.308Z,101686.06
2022-10-19T08:43:10.182Z,101682.91
2022-10-19T08:45:42.719Z,101673.91
2022-10-19T08:48:24.101Z,101669.47
2022-10-19T08:50:51.657Z,101662.75
2022-10-19T08:53:32.474Z,101653.22
2022-10-19T08:56:50.991Z,101649.78
2022-10-19T08:59:26.202Z,101643.72
2022-10-19T09:02:02.531Z,101633.81
2022-10-19T09:04:45.999Z,101636.28
2022-10-19T09:07:34.751Z,101642.25
2022-10-19T09:10:09.061Z,101647.44
2022-10-19T09:12:52.866Z,101652.88
2022-10-19T09:15:27.331Z,101644.84
2022-10-19T09:17:53.908Z,101647.00
2022-10-19T09:20:25.414Z,101645.38
2022-10-19T09:23:26.501Z,101650.13
2022-10-19T09:25:54.010Z,101647.00
2022-10-19T09:28:39.627Z,101653.59
2022-10-19T09:31:14.928Z,101649.63
2022-10-19T09:33:43.876Z,101640.78
2022-10-19T09:36:18.315Z,101639.94
2022-10-19T09:38:54.558Z,101642.25
2022-10-19T09:41:23.430Z,101638.63
2022-10-19T09:43:54.505Z,101637.16
2022-10-19T09:46:32.472Z,101631.56
2022-10-19T09:49:01.761Z,101632.91
2022-10-19T09:51:40.546Z,101633.53
2022-10-19T09:54:23.783Z,101630.63
2022-10-19T09:56:55.696Z,101628.78
2022-10-19T09:59:24.547Z,101624.84
2022-10-19T10:02:13.790Z,101629.63
2022-10-19T10:04:40.428Z,101616.78
2022-10-19T10:07:14.015Z,101614.00
2022-10-19T10:09:44.133Z,101605.63
2022-10-19T10:12:14.233Z,101602.72
2022-10-19T10:14:41.160Z,101598.59
2022-10-19T10:17:19.147Z,101593.66
2022-10-19T10:20:21.049Z,101604.97
2022-10-19T10:22:58.084Z,101609.59
2022-10-19T10:25:27.651Z,101603.16
2022-10-19T10:28:00.596Z,101605.28
2022-10-19T10:30:33.045Z,101610.88
2022-10-19T10:33:08.170Z,101600.84
2022-10-19T10:35:53.488Z,101604.59
2022-10-19T10:38:26.501Z,101593.75
2022-10-19T10:41:18.080Z,101581.97
2022-10-19T10:44:00.851Z,101578.56
2022-10-19T10:46:37.041Z,101576.97
2022-10-19T10:49:06.995Z,101578.81
2022-10-19T10:51:38.057Z,101563.38
2022-10-19T10:54:27.133Z,101564.88
2022-10-19T10:57:15.640Z,101555.19
2022-10-19T11:00:08.236Z,101550.59
2022-10-19T11:02:36.761Z,101542.06
2022-10-19T11:05:13.218Z,101526.13
2022-10-19T11:07:44.929Z,101534.66
2022-10-19T11:10:21.773Z,101528.56
2022-10-19T11:13:04.492Z,101515.63
2022-10-19T11:15:39.522Z,101511.00
2022-10-19T11:18:44.153Z,101499.16
2022-10-19T11:21:22.461Z,101506.72
2022-10-19T11:24:02.231Z,101499.81
2022-10-19T11:26:59.387Z,101483.91
2022-10-19T11:29:56.895Z,101496.06
2022-10-19T11:32:36.177Z,101491.13
2022-10-19T11:35:09.410Z,101489.97
2022-10-19T11:37:49.713Z,101481.25
2022-10-19T11:40:54.180Z,101472.41
2022-10-19T11:43:51.575Z,101459.75
2022-10-19T11:46:47.169Z,101445.13
2022-10-19T11:49:13.753Z,101443.13
2022-10-19T11:52:02.357Z,101439.19
2022-10-19T11:55:16.433Z,101444.09
2022-10-19T11:57:59.464Z,101446.06
2022-10-19T12:00:45.590Z,101442.78
2022-10-19T12:03:37.521Z,101434.06
2022-10-19T12:06:24.108Z,101437.22
2022-10-19T12:09:09.156Z,101429.66
2022-10-19T12:11:49.260Z,101422.78
2022-10-19T12:14:20.547Z,101419.47
2022-10-19T12:16:55.338Z,101421.13
2022-10-19T12:19:28.200Z,101426.84
2022-10-19T12:22:00.212Z,101417.00
2022-10-19T12:24:29.229Z,101415.81
2022-10-19T12:26:57.068Z,101408.63
2022-10-19T12:29:48.507Z,101406.16
2022-10-19T12:32:20.286Z,101399.91
2022-10-19T12:35:12.483Z,101395.16
2022-10-19T12:37:55.330Z,101382.19
2022-10-19T12:40:33.545Z,101375.78
2022-10-19T12:43:28.052Z,101379.53
2022-10-19T12:46:32.077Z,101383.16
2022-10-19T12:49:26.513Z,101379.06
2022-10-19T12:51:55.545Z,101371.19
2022-10-19T12:54:25.055Z,101359.53
2022-10-19T12:56:55.203Z,101355.78
2022-10-19T12:59:31.203Z,101362.16
2022-10-19T13:01:59.335Z,101359.53
2022-10-19T13:04:29.045Z,101363.63
2022-10-19T13:07:02.581Z,101365.09
2022-10-19T13:09:37.442Z,101363.63
2022-10-19T13:12:16.119Z,101368.38
2022-10-19T13:14:57.028Z,101358.69
2022-10-19T13:17:40.654Z,101350.34
2022-10-19T13:20:13.498Z,101342.97
2022-10-19T13:23:03.589Z,101338.03
2022-10-19T13:25:31.256Z,101346.72
2022-10-19T13:28:06.892Z,101324.56
2022-10-19T13:30:39.345Z,101325.88
2022-10-19T13:33:33.495Z,101324.25
2022-10-19T13:36:00.398Z,101316.88
2022-10-19T13:38:48.530Z,101317.38
2022-10-19T13:41:27.580Z,101316.38
2022-10-19T13:44:03.283Z,101304.41
2022-10-19T13:46:29.908Z,101308.84
2022-10-19T13:49:04.939Z,101301.97
2022-10-19T13:51:55.376Z,101315.91
2022-10-19T13:54:43.121Z,101303.75
2022-10-19T13:57:25.800Z,101304.75
2022-10-19T14:00:04.926Z,101296.19
2022-10-19T14:02:51.279Z,101303.44
2022-10-19T14:05:42.595Z,101285.38
2022-10-19T14:08:18.149Z,101285.69
2022-10-19T14:11:00.686Z,101285.22
2022-10-19T14:13:28.991Z,101285.69
2022-10-19T14:15:58.073Z,101285.38
2022-10-19T14:18:33.016Z,101276.84
2022-10-19T14:21:02.797Z,101282.25
2022-10-19T14:23:34.932Z,101265.69
2022-10-19T14:26:05.454Z,101264.19
2022-10-19T14:28:33.625Z,101268.28
2022-10-19T14:31:01.539Z,101263.19
2022-10-19T14:33:34.571Z,101258.25
2022-10-19T14:36:01.868Z,101259.09
2022-10-19T14:38:38.446Z,101264.50
2022-10-19T14:41:17.733Z,101258.78
2022-10-19T14:43:44.349Z,101270.59
2022-10-19T14:46:14.001Z,101258.94
2022-10-19T14:48:45.233Z,101251.09
2022-10-19T14:51:33.012Z,101233.31
2022-10-19T14:54:22.856Z,101243.53
2022-10-19T14:56:59.005Z,101240.88
2022-10-19T14:59:44.853Z,101240.59
2022-10-19T15:02:40.117Z,101243.66
2022-10-19T15:05:19.749Z,101237.63
2022-10-19T15:07:46.651Z,101239.94
2022-10-19T15:10:41.723Z,101242.69
2022-10-19T15:13:22.648Z,101236.09
2022-10-19T15:15:52.369Z,101235.59
2022-10-19T15:18:44.171Z,101226.56
2022-10-19T15:21:15.752Z,101237.91
2022-10-19T15:24:06.811Z,101217.41
2022-10-19T15:26:33.597Z,101223.97
2022-10-19T15:29:19.196Z,101211.34
2022-10-19T15:31:45.736Z,101210.66
2022-10-19T15:34:25.635Z,101210.00
2022-10-19T15:37:01.295Z,101206.03
2022-10-19T15:39:38.742Z,101200.47
2022-10-19T15:42:34.564Z,101201.28
2022-10-19T15:45:02.336Z,101194.72
2022-10-19T15:47:28.966Z,101192.28
2022-10-19T15:50:01.091Z,101183.09
2022-10-19T15:52:31.643Z,101182.13
2022-10-19T15:54:59.656Z,101171.13
2022-10-19T15:57:38.334Z,101162.44
2022-10-19T16:00:12.565Z,101161.91
2022-10-19T16:02:39.407Z,101157.50
2022-10-19T16:07:40.215Z,101160.13
2022-10-19T16:10:08.592Z,101149.00
2022-10-19T16:12:35.198Z,101152.09
2022-10-19T16:15:01.876Z,101143.81
2022-10-19T16:17:28.524Z,101146.53
2022-10-19T16:19:55.118Z,101137.38
2022-10-19T16:22:21.924Z,101137.84
2022-10-19T16:24:48.575Z,101134.06
2022-10-19T16:27:16.336Z,101135.34
2022-10-19T16:29:44.367Z,101133.22
2022-10-19T16:32:11.031Z,101127.47
2022-10-19T16:34:38.066Z,101120.75
2022-10-19T16:37:06.945Z,101121.28
2022-10-19T16:39:34.385Z,101117.63
2022-10-19T16:42:00.989Z,101111.38
2022-10-19T16:44:27.730Z,101114.13
2022-10-19T16:46:56.590Z,101113.00
2022-10-19T16:49:23.432Z,101117.91
2022-10-19T16:51:53.233Z,101123.66
2022-10-19T16:54:23.232Z,101120.38
2022-10-19T16:56:50.333Z,101115.75
2022-10-19T16:59:18.783Z,101119.03
2022-10-19T17:01:46.528Z,101110.31
2022-10-19T17:04:15.582Z,101103.78
2022-10-19T17:06:42.520Z,101105.13
2022-10-19T17:11:56.111Z,101102.03
2022-10-19T17:14:22.671Z,101101.06
2022-10-19T17:16:49.281Z,101101.41
2022-10-19T17:19:16.057Z,101094.03
2022-10-19T17:21:42.904Z,101095.19
2022-10-19T17:24:18.674Z,101079.16
2022-10-19T17:26:49.698Z,101084.25
2022-10-19T17:29:16.418Z,101095.72
2022-10-19T17:31:43.538Z,101105.41
2022-10-19T17:34:10.678Z,101101.97
2022-10-19T17:39:18.230Z,101102.81
2022-10-19T17:41:47.493Z,101100.38
2022-10-19T17:44:14.734Z,101095.44
2022-10-19T17:46:41.801Z,101097.72
2022-10-19T17:49:09.027Z,101101.69
2022-10-19T17:51:37.297Z,101105.16
2022-10-19T17:54:07.752Z,101104.81
2022-10-19T17:56:35.830Z,101096.44
2022-10-19T17:59:03.326Z,101086.75
2022-10-19T18:01:30.850Z,101089.56
2022-10-19T18:03:57.585Z,101079.72
2022-10-19T18:06:27.396Z,101080.53
2022-10-19T18:08:56.274Z,101082.84
2022-10-19T18:11:26.520Z,101075.97
2022-10-19T18:13:56.257Z,101075.97
2022-10-19T18:16:26.020Z,101075.47
2022-10-19T18:18:55.364Z,101069.91
2022-10-19T18:21:24.513Z,101083.38
2022-10-19T18:23:53.397Z,101075.66
2022-10-19T18:26:23.069Z,101076.16
2022-10-19T18:28:52.500Z,101074.53
2022-10-19T18:31:30.605Z,101063.19
2022-10-19T18:34:00.027Z,101069.59
2022-10-19T18:36:27.255Z,101065.50
2022-10-19T18:38:56.967Z,101067.97
2022-10-19T18:41:24.209Z,101067.13
2022-10-19T18:43:56.489Z,101067.97
2022-10-19T18:46:25.268Z,101058.28
2022-10-19T18:48:52.078Z,101050.28
2022-10-19T18:51:19.629Z,101048.63
2022-10-19T18:53:47.394Z,101055.03
2022-10-19T18:56:16.678Z,101046.66
2022-10-19T18:58:43.740Z,101039.78
2022-10-19T19:01:14.790Z,101030.25
2022-10-19T19:03:44.953Z,101019.09
2022-10-19T19:06:15.101Z,101022.22
2022-10-19T19:11:19.606Z,100990.72
2022-10-19T19:14:01.042Z,100984.66
2022-10-19T19:16:30.050Z,100987.09
2022-10-19T19:18:56.612Z,100985.97
2022-10-19T19:21:29.605Z,100982.34
2022-10-19T19:23:59.088Z,100975.47
2022-10-19T19:26:28.073Z,100971.88
2022-10-19T19:28:54.816Z,100971.03
2022-10-19T19:31:21.661Z,100965.78
2022-10-19T19:33:48.380Z,100963.81
2022-10-19T19:36:16.833Z,100968.56
2022-10-19T19:38:44.295Z,100963.50
2022-10-19T19:41:13.939Z,100961.19
2022-10-19T19:43:41.514Z,100959.03
2022-10-19T19:46:17.316Z,100953.16
2022-10-19T19:48:46.299Z,100952.66
2022-10-19T19:51:16.210Z,100955.59
2022-10-19T19:53:43.714Z,100958.09
2022-10-19T19:56:12.442Z,100951.84
2022-10-19T19:58:39.816Z,100946.25
2022-10-19T20:01:17.414Z,100943.78
2022-10-19T20:03:45.821Z,100936.72
2022-10-19T20:06:14.292Z,100938.88
2022-10-19T20:08:40.941Z,100935.78
2022-10-19T20:11:09.781Z,100933.31
2022-10-19T20:13:37.409Z,100932.50
2022-10-19T20:16:18.609Z,100930.19
2022-10-19T20:18:51.372Z,100938.09
2022-10-19T20:21:19.110Z,100932.50
2022-10-19T20:23:46.469Z,100923.16
2022-10-19T20:26:21.735Z,100933.19
2022-10-19T20:28:49.329Z,100929.22
2022-10-19T20:31:16.853Z,100923.63
2022-10-19T20:33:44.699Z,100925.22
2022-10-19T20:36:20.786Z,100914.38
2022-10-19T20:38:55.532Z,100913.69
2022-10-19T20:41:25.001Z,100914.66
2022-10-19T20:43:53.594Z,100911.13
2022-10-19T20:46:23.529Z,100910.97
2022-10-19T20:48:51.578Z,100911.34
2022-10-19T20:51:21.412Z,100915.22
2022-10-19T20:53:50.118Z,100908.97
2022-10-19T20:56:21.589Z,100909.09
2022-10-19T20:58:50.288Z,100905.16
2022-10-19T21:01:19.028Z,100899.78
2022-10-19T21:03:56.738Z,100895.84
2022-10-19T21:06:25.343Z,100901.34
2022-10-19T21:08:52.302Z,100905.03
2022-10-19T21:11:30.499Z,100902.03
2022-10-19T21:14:04.784Z,100889.91
2022-10-19T21:16:34.016Z,100892.91
2022-10-19T21:19:01.808Z,100890.31
2022-10-19T21:21:31.091Z,100885.56
2022-10-19T21:24:18.358Z,100883.75
2022-10-19T21:26:45.695Z,100890.16
2022-10-19T21:29:14.358Z,100885.94
2022-10-19T21:31:46.443Z,100885.13
2022-10-19T21:34:19.450Z,100878.25
2022-10-19T21:36:46.469Z,100889.06
2022-10-19T21:39:13.579Z,100881.84
2022-10-19T21:41:40.286Z,100892.06
2022-10-19T21:44:07.305Z,100881.59
2022-10-19T21:46:34.096Z,100870.75
2022-10-19T21:49:00.727Z,100868.31
2022-10-19T21:51:36.025Z,100866.66
2022-10-19T21:54:07.175Z,100861.75
2022-10-19T21:56:34.473Z,100863.72
2022-10-19T21:59:01.088Z,100862.59
2022-10-19T22:01:29.505Z,100851.75
2022-10-19T22:03:57.829Z,100852.25
2022-10-19T22:06:29.396Z,100849.47
2022-10-19T22:08:57.254Z,100850.97
2022-10-19T22:11:24.914Z,100846.84
2022-10-19T22:13:55.960Z,100854.75
2022-10-19T22:16:23.135Z,100857.22
2022-10-19T22:18:50.176Z,100849.63
2022-10-19T22:21:36.073Z,100846.69
2022-10-19T22:24:26.232Z,100814.22
2022-10-19T22:26:52.955Z,100813.75
2022-10-19T22:29:19.588Z,100812.94
2022-10-19T22:31:46.334Z,100813.75
2022-10-19T22:34:16.378Z,100804.94
2022-10-19T22:36:44.413Z,100804.94
2022-10-19T22:39:11.169Z,100798.84
2022-10-19T22:42:34.561Z,100796.06
2022-10-19T22:45:20.140Z,100773.59
2022-10-19T22:47:46.898Z,100773.09
2022-10-19T22:50:13.647Z,100776.06
2022-10-19T22:52:42.569Z,100780.34
2022-10-19T22:55:09.541Z,100775.09
2022-10-19T22:57:36.050Z,100777.44
2022-10-19T23:00:02.982Z,100763.00
2022-10-19T23:02:29.789Z,100759.75
2022-10-19T23:04:56.539Z,100764.16
2022-10-19T23:07:23.080Z,100754.19
2022-10-19T23:09:49.673Z,100765.19
2022-10-19T23:12:16.300Z,100762.03
2022-10-19T23:14:42.840Z,100756.97
2022-10-19T23:17:09.385Z,100740.91
2022-10-19T23:19:35.901Z,100741.72
2022-10-19T23:22:02.707Z,100743.72
2022-10-19T23:24:29.716Z,100747.16
2022-10-19T23:26:56.437Z,100739.28
2022-10-19T23:29:23.337Z,100733.22
2022-10-19T23:31:50.262Z,100720.44
2022-10-19T23:34:16.943Z,100712.44
2022-10-19T23:36:46.132Z,100715.22
2022-10-19T23:39:13.001Z,100711.13
2022-10-19T23:41:39.570Z,100706.88
2022-10-19T23:44:06.912Z,100712.91
2022-10-19T23:46:48.351Z,100704.41
2022-10-19T23:49:14.931Z,100690.81
2022-10-19T23:51:41.724Z,100688.34
2022-10-19T23:54:11.160Z,100686.03
2022-10-19T23:56:37.681Z,100687.88
2022-10-19T23:59:07.316Z,100685.91
